sensor_id;sensor_type;location;lat;lon;timestamp;pressure;altitude;pressure_sealevel;temperature;humidity
83664;BME280;73634;47.068;15.426;2024-01-10T00:00:56;98815.75;;;-1.75;41.44
83664;BME280;73634;47.068;15.426;2024-01-10T00:03:21;98819.75;;;-1.73;42.01
83664;BME280;73634;47.068;15.426;2024-01-10T00:05:46;98818.28;;;-1.67;41.58
83664;BME280;73634;47.068;15.426;2024-01-10T00:08:12;98817.31;;;-1.66;41.93
83664;BME280;73634;47.068;15.426;2024-01-10T00:10:37;98812.25;;;-1.82;42.52
83664;BME280;73634;47.068;15.426;2024-01-10T00:13:03;98822.16;;;-1.79;42.85
83664;BME280;73634;47.068;15.426;2024-01-10T00:15:29;98818.16;;;-1.74;42.81
83664;BME280;73634;47.068;15.426;2024-01-10T00:17:54;98814.63;;;-1.73;42.47
83664;BME280;73634;47.068;15.426;2024-01-10T00:22:39;98808.91;;;-1.83;43.54
83664;BME280;73634;47.068;15.426;2024-01-10T00:25:05;98817.06;;;-1.87;42.97
83664;BME280;73634;47.068;15.426;2024-01-10T00:27:30;98805.31;;;-2.05;43.38
83664;BME280;73634;47.068;15.426;2024-01-10T00:29:55;98808.03;;;-2.06;43.76
83664;BME280;73634;47.068;15.426;2024-01-10T00:32:22;98814.91;;;-2.15;43.40
83664;BME280;73634;47.068;15.426;2024-01-10T00:34:47;98813.63;;;-2.11;43.31
83664;BME280;73634;47.068;15.426;2024-01-10T00:37:12;98812.19;;;-2.13;43.52
83664;BME280;73634;47.068;15.426;2024-01-10T00:39:38;98806.59;;;-2.09;44.46
83664;BME280;73634;47.068;15.426;2024-01-10T00:42:03;98808.50;;;-2.03;44.24
83664;BME280;73634;47.068;15.426;2024-01-10T00:47:20;98820.25;;;-1.93;44.13
83664;BME280;73634;47.068;15.426;2024-01-10T00:49:45;98817.88;;;-1.95;44.28
83664;BME280;73634;47.068;15.426;2024-01-10T00:52:11;98820.41;;;-1.87;44.54
83664;BME280;73634;47.068;15.426;2024-01-10T00:54:37;98827.88;;;-1.77;44.26
83664;BME280;73634;47.068;15.426;2024-01-10T00:57:03;98827.72;;;-1.84;44.65
83664;BME280;73634;47.068;15.426;2024-01-10T00:59:29;98829.19;;;-1.89;44.23
83664;BME280;73634;47.068;15.426;2024-01-10T01:01:55;98834.97;;;-2.12;45.41
83664;BME280;73634;47.068;15.426;2024-01-10T01:04:21;98830.97;;;-2.06;45.60
83664;BME280;73634;47.068;15.426;2024-01-10T01:06:48;98836.25;;;-2.24;46.16
83664;BME280;73634;47.068;15.426;2024-01-10T01:12:10;98832.75;;;-2.23;46.17
83664;BME280;73634;47.068;15.426;2024-01-10T01:14:36;98831.00;;;-2.22;46.45
83664;BME280;73634;47.068;15.426;2024-01-10T01:17:02;98838.97;;;-2.25;46.03
83664;BME280;73634;47.068;15.426;2024-01-10T01:19:28;98838.16;;;-2.26;45.82
83664;BME280;73634;47.068;15.426;2024-01-10T01:21:54;98828.44;;;-2.14;45.87
83664;BME280;73634;47.068;15.426;2024-01-10T01:24:20;98832.25;;;-2.02;45.33
83664;BME280;73634;47.068;15.426;2024-01-10T01:26:45;98833.34;;;-1.96;45.64
83664;BME280;73634;47.068;15.426;2024-01-10T01:29:11;98838.75;;;-1.99;45.78
83664;BME280;73634;47.068;15.426;2024-01-10T01:31:36;98833.50;;;-1.98;45.97
83664;BME280;73634;47.068;15.426;2024-01-10T01:36:36;98824.59;;;-2.02;45.69
83664;BME280;73634;47.068;15.426;2024-01-10T01:39:02;98831.09;;;-1.99;45.66
83664;BME280;73634;47.068;15.426;2024-01-10T01:41:28;98821.69;;;-1.91;44.88
83664;BME280;73634;47.068;15.426;2024-01-10T01:43:54;98820.78;;;-2.06;45.10
83664;BME280;73634;47.068;15.426;2024-01-10T01:46:21;98821.41;;;-2.04;45.38
83664;BME280;73634;47.068;15.426;2024-01-10T01:48:48;98828.44;;;-2.06;45.28
83664;BME280;73634;47.068;15.426;2024-01-10T01:51:14;98822.06;;;-2.02;45.06
83664;BME280;73634;47.068;15.426;2024-01-10T01:53:42;98824.13;;;-2.06;45.02
83664;BME280;73634;47.068;15.426;2024-01-10T01:56:10;98821.75;;;-2.07;45.26
83664;BME280;73634;47.068;15.426;2024-01-10T02:01:35;98820.63;;;-2.05;45.29
83664;BME280;73634;47.068;15.426;2024-01-10T02:04:01;98825.56;;;-2.11;45.88
83664;BME280;73634;47.068;15.426;2024-01-10T02:06:28;98824.78;;;-2.12;44.96
83664;BME280;73634;47.068;15.426;2024-01-10T02:08:55;98818.06;;;-2.05;45.32
83664;BME280;73634;47.068;15.426;2024-01-10T02:11:21;98815.19;;;-2.02;45.43
83664;BME280;73634;47.068;15.426;2024-01-10T02:13:48;98821.59;;;-2.14;45.81
83664;BME280;73634;47.068;15.426;2024-01-10T02:16:13;98825.72;;;-2.13;46.11
83664;BME280;73634;47.068;15.426;2024-01-10T02:18:39;98813.47;;;-2.25;46.02
83664;BME280;73634;47.068;15.426;2024-01-10T02:21:04;98821.13;;;-2.25;46.05
83664;BME280;73634;47.068;15.426;2024-01-10T02:24:53;98818.25;;;-2.22;46.74
83664;BME280;73634;47.068;15.426;2024-01-10T02:27:19;98813.31;;;-2.24;46.54
83664;BME280;73634;47.068;15.426;2024-01-10T02:29:45;98820.47;;;-2.19;46.17
83664;BME280;73634;47.068;15.426;2024-01-10T02:32:10;98819.38;;;-2.33;46.46
83664;BME280;73634;47.068;15.426;2024-01-10T02:34:35;98818.09;;;-2.29;46.30
83664;BME280;73634;47.068;15.426;2024-01-10T02:37:01;98813.00;;;-2.29;46.22
83664;BME280;73634;47.068;15.426;2024-01-10T02:39:26;98814.75;;;-2.29;46.31
83664;BME280;73634;47.068;15.426;2024-01-10T02:41:51;98814.00;;;-2.46;46.96
83664;BME280;73634;47.068;15.426;2024-01-10T02:44:17;98812.38;;;-2.55;47.41
83664;BME280;73634;47.068;15.426;2024-01-10T02:49:01;98810.47;;;-2.53;48.15
83664;BME280;73634;47.068;15.426;2024-01-10T02:51:27;98801.56;;;-2.57;48.03
83664;BME280;73634;47.068;15.426;2024-01-10T02:53:53;98804.75;;;-2.63;47.21
83664;BME280;73634;47.068;15.426;2024-01-10T02:56:18;98800.91;;;-2.67;47.88
83664;BME280;73634;47.068;15.426;2024-01-10T02:58:44;98802.66;;;-2.68;48.20
83664;BME280;73634;47.068;15.426;2024-01-10T03:01:09;98799.47;;;-2.70;48.38
83664;BME280;73634;47.068;15.426;2024-01-10T03:03:35;98801.69;;;-2.75;49.50
83664;BME280;73634;47.068;15.426;2024-01-10T03:06:00;98802.69;;;-2.84;49.93
83664;BME280;73634;47.068;15.426;2024-01-10T03:08:25;98799.19;;;-2.83;50.06
83664;BME280;73634;47.068;15.426;2024-01-10T03:13:23;98794.56;;;-2.88;50.73
83664;BME280;73634;47.068;15.426;2024-01-10T03:15:48;98784.84;;;-2.92;50.84
83664;BME280;73634;47.068;15.426;2024-01-10T03:18:14;98793.91;;;-2.90;50.60
83664;BME280;73634;47.068;15.426;2024-01-10T03:20:40;98783.72;;;-2.98;51.58
83664;BME280;73634;47.068;15.426;2024-01-10T03:23:05;98793.41;;;-3.02;51.56
83664;BME280;73634;47.068;15.426;2024-01-10T03:25:30;98792.28;;;-3.07;52.04
83664;BME280;73634;47.068;15.426;2024-01-10T03:27:56;98791.19;;;-3.05;51.63
83664;BME280;73634;47.068;15.426;2024-01-10T03:30:21;98784.81;;;-3.09;51.78
83664;BME280;73634;47.068;15.426;2024-01-10T03:32:49;98788.31;;;-3.10;51.97
83664;BME280;73634;47.068;15.426;2024-01-10T03:37:49;98787.03;;;-3.22;52.51
83664;BME280;73634;47.068;15.426;2024-01-10T03:40:14;98779.41;;;-3.22;52.50
83664;BME280;73634;47.068;15.426;2024-01-10T03:42:40;98781.47;;;-3.25;52.54
83664;BME280;73634;47.068;15.426;2024-01-10T03:45:05;98777.63;;;-3.29;52.72
83664;BME280;73634;47.068;15.426;2024-01-10T03:47:31;98781.75;;;-3.28;52.54
83664;BME280;73634;47.068;15.426;2024-01-10T03:49:56;98783.34;;;-3.27;52.78
83664;BME280;73634;47.068;15.426;2024-01-10T03:52:21;98781.44;;;-3.33;52.59
83664;BME280;73634;47.068;15.426;2024-01-10T03:54:47;98779.84;;;-3.34;53.32
83664;BME280;73634;47.068;15.426;2024-01-10T03:57:12;98769.97;;;-3.38;53.48
83664;BME280;73634;47.068;15.426;2024-01-10T04:02:01;98776.50;;;-3.35;53.62
83664;BME280;73634;47.068;15.426;2024-01-10T04:04:27;98779.34;;;-3.38;53.67
83664;BME280;73634;47.068;15.426;2024-01-10T04:06:52;98778.84;;;-3.42;53.79
83664;BME280;73634;47.068;15.426;2024-01-10T04:09:17;98777.28;;;-3.43;54.16
83664;BME280;73634;47.068;15.426;2024-01-10T04:11:43;98776.97;;;-3.40;54.09
83664;BME280;73634;47.068;15.426;2024-01-10T04:14:08;98779.16;;;-3.45;54.28
83664;BME280;73634;47.068;15.426;2024-01-10T04:16:33;98789.81;;;-3.49;54.92
83664;BME280;73634;47.068;15.426;2024-01-10T04:18:59;98793.44;;;-3.52;55.36
83664;BME280;73634;47.068;15.426;2024-01-10T04:21:24;98792.66;;;-3.52;55.83
83664;BME280;73634;47.068;15.426;2024-01-10T04:26:21;98802.63;;;-3.59;56.23
83664;BME280;73634;47.068;15.426;2024-01-10T04:28:47;98803.13;;;-3.63;56.50
83664;BME280;73634;47.068;15.426;2024-01-10T04:31:12;98803.28;;;-3.65;56.67
83664;BME280;73634;47.068;15.426;2024-01-10T04:33:38;98807.72;;;-3.67;56.81
83664;BME280;73634;47.068;15.426;2024-01-10T04:36:03;98807.06;;;-3.69;56.56
83664;BME280;73634;47.068;15.426;2024-01-10T04:38:29;98807.88;;;-3.68;56.93
83664;BME280;73634;47.068;15.426;2024-01-10T04:40:54;98806.59;;;-3.73;56.75
83664;BME280;73634;47.068;15.426;2024-01-10T04:43:20;98802.25;;;-3.80;56.83
83664;BME280;73634;47.068;15.426;2024-01-10T04:45:45;98809.88;;;-3.80;57.14
83664;BME280;73634;47.068;15.426;2024-01-10T04:50:17;98816.06;;;-3.83;58.59
83664;BME280;73634;47.068;15.426;2024-01-10T04:52:43;98816.38;;;-3.86;57.86
83664;BME280;73634;47.068;15.426;2024-01-10T04:55:08;98811.28;;;-3.86;58.81
83664;BME280;73634;47.068;15.426;2024-01-10T04:57:34;98815.56;;;-3.86;59.25
83664;BME280;73634;47.068;15.426;2024-01-10T04:59:59;98810.78;;;-3.89;59.29
83664;BME280;73634;47.068;15.426;2024-01-10T05:02:24;98815.38;;;-3.93;60.04
83664;BME280;73634;47.068;15.426;2024-01-10T05:04:50;98818.22;;;-3.96;60.48
83664;BME280;73634;47.068;15.426;2024-01-10T05:07:15;98818.34;;;-3.97;60.56
83664;BME280;73634;47.068;15.426;2024-01-10T05:09:40;98821.84;;;-3.98;60.96
83664;BME280;73634;47.068;15.426;2024-01-10T05:14:27;98826.31;;;-4.00;61.30
83664;BME280;73634;47.068;15.426;2024-01-10T05:16:53;98822.97;;;-4.01;61.35
83664;BME280;73634;47.068;15.426;2024-01-10T05:19:18;98828.34;;;-4.04;61.21
83664;BME280;73634;47.068;15.426;2024-01-10T05:21:44;98821.69;;;-4.05;61.14
83664;BME280;73634;47.068;15.426;2024-01-10T05:24:09;98831.84;;;-4.05;61.54
83664;BME280;73634;47.068;15.426;2024-01-10T05:26:35;98829.97;;;-3.95;63.19
83664;BME280;73634;47.068;15.426;2024-01-10T05:29:01;98833.31;;;-3.94;62.25
83664;BME280;73634;47.068;15.426;2024-01-10T05:31:27;98831.69;;;-4.04;62.53
83664;BME280;73634;47.068;15.426;2024-01-10T05:33:53;98831.34;;;-4.09;62.41
83664;BME280;73634;47.068;15.426;2024-01-10T05:37:39;98834.81;;;-4.10;63.09
83664;BME280;73634;47.068;15.426;2024-01-10T05:40:05;98836.56;;;-4.10;62.73
83664;BME280;73634;47.068;15.426;2024-01-10T05:42:31;98835.28;;;-4.14;63.25
83664;BME280;73634;47.068;15.426;2024-01-10T05:45:00;98837.00;;;-4.15;63.06
83664;BME280;73634;47.068;15.426;2024-01-10T05:47:27;98852.75;;;-4.11;63.29
83664;BME280;73634;47.068;15.426;2024-01-10T05:49:53;98845.16;;;-4.11;63.47
83664;BME280;73634;47.068;15.426;2024-01-10T05:52:19;98838.31;;;-4.11;64.20
83664;BME280;73634;47.068;15.426;2024-01-10T05:54:45;98843.53;;;-4.12;63.62
83664;BME280;73634;47.068;15.426;2024-01-10T05:57:10;98848.47;;;-4.11;63.55
83664;BME280;73634;47.068;15.426;2024-01-10T06:02:08;98846.69;;;-4.18;63.65
83664;BME280;73634;47.068;15.426;2024-01-10T06:04:33;98846.69;;;-4.18;64.37
83664;BME280;73634;47.068;15.426;2024-01-10T06:06:59;98849.88;;;-4.16;64.77
83664;BME280;73634;47.068;15.426;2024-01-10T06:09:24;98845.16;;;-4.11;64.28
83664;BME280;73634;47.068;15.426;2024-01-10T06:11:50;98848.28;;;-4.17;64.45
83664;BME280;73634;47.068;15.426;2024-01-10T06:14:18;98852.56;;;-4.18;64.49
83664;BME280;73634;47.068;15.426;2024-01-10T06:16:50;98851.75;;;-4.18;64.59
83664;BME280;73634;47.068;15.426;2024-01-10T06:19:15;98851.31;;;-4.14;64.57
83664;BME280;73634;47.068;15.426;2024-01-10T06:21:41;98848.41;;;-4.19;64.81
83664;BME280;73634;47.068;15.426;2024-01-10T06:26:43;98851.25;;;-4.22;64.74
83664;BME280;73634;47.068;15.426;2024-01-10T06:29:09;98848.13;;;-4.16;64.56
83664;BME280;73634;47.068;15.426;2024-01-10T06:31:34;98853.06;;;-4.14;64.68
83664;BME280;73634;47.068;15.426;2024-01-10T06:33:59;98861.78;;;-4.17;64.67
83664;BME280;73634;47.068;15.426;2024-01-10T06:36:25;98861.13;;;-4.19;65.10
83664;BME280;73634;47.068;15.426;2024-01-10T06:38:50;98864.09;;;-4.23;65.56
83664;BME280;73634;47.068;15.426;2024-01-10T06:41:15;98868.38;;;-4.24;66.09
83664;BME280;73634;47.068;15.426;2024-01-10T06:43:41;98867.44;;;-4.23;65.77
83664;BME280;73634;47.068;15.426;2024-01-10T06:46:06;98869.03;;;-4.22;66.03
83664;BME280;73634;47.068;15.426;2024-01-10T06:50:09;98883.56;;;-4.14;66.16
83664;BME280;73634;47.068;15.426;2024-01-10T06:52:34;98879.06;;;-4.20;65.70
83664;BME280;73634;47.068;15.426;2024-01-10T06:55:00;98882.47;;;-4.12;64.72
83664;BME280;73634;47.068;15.426;2024-01-10T06:57:25;98891.38;;;-4.08;64.96
83664;BME280;73634;47.068;15.426;2024-01-10T06:59:52;98882.81;;;-4.07;65.42
83664;BME280;73634;47.068;15.426;2024-01-10T07:02:17;98892.84;;;-4.05;65.62
83664;BME280;73634;47.068;15.426;2024-01-10T07:04:42;98888.13;;;-4.00;65.50
83664;BME280;73634;47.068;15.426;2024-01-10T07:07:08;98893.53;;;-3.95;64.64
83664;BME280;73634;47.068;15.426;2024-01-10T07:09:33;98885.81;;;-3.85;64.46
83664;BME280;73634;47.068;15.426;2024-01-10T07:14:35;98890.00;;;-3.76;65.82
83664;BME280;73634;47.068;15.426;2024-01-10T07:17:00;98898.31;;;-3.66;64.56
83664;BME280;73634;47.068;15.426;2024-01-10T07:19:26;98903.13;;;-3.55;64.08
83664;BME280;73634;47.068;15.426;2024-01-10T07:21:51;98903.78;;;-3.53;63.71
83664;BME280;73634;47.068;15.426;2024-01-10T07:24:19;98909.97;;;-3.55;63.64
83664;BME280;73634;47.068;15.426;2024-01-10T07:26:44;98905.56;;;-3.45;63.10
83664;BME280;73634;47.068;15.426;2024-01-10T07:29:09;98905.47;;;-3.36;62.64
83664;BME280;73634;47.068;15.426;2024-01-10T07:31:35;98904.25;;;-3.23;62.41
83664;BME280;73634;47.068;15.426;2024-01-10T07:34:00;98910.53;;;-3.02;61.91
83664;BME280;73634;47.068;15.426;2024-01-10T07:36:26;98910.28;;;-2.74;60.67
83664;BME280;73634;47.068;15.426;2024-01-10T07:40:31;98903.66;;;-2.43;59.80
83664;BME280;73634;47.068;15.426;2024-01-10T07:42:57;98909.25;;;-2.07;59.54
83664;BME280;73634;47.068;15.426;2024-01-10T07:45:22;98899.16;;;-1.76;57.80
83664;BME280;73634;47.068;15.426;2024-01-10T07:47:48;98895.59;;;-1.58;57.33
83664;BME280;73634;47.068;15.426;2024-01-10T07:50:13;98907.59;;;-1.67;57.84
83664;BME280;73634;47.068;15.426;2024-01-10T07:55:12;98902.72;;;-1.38;56.58
83664;BME280;73634;47.068;15.426;2024-01-10T07:57:38;98899.84;;;-0.95;56.07
83664;BME280;73634;47.068;15.426;2024-01-10T08:00:06;98900.50;;;-0.48;53.95
83664;BME280;73634;47.068;15.426;2024-01-10T08:05:32;98899.09;;;-0.50;53.91
83664;BME280;73634;47.068;15.426;2024-01-10T08:07:58;98904.38;;;-0.52;53.27
83664;BME280;73634;47.068;15.426;2024-01-10T08:10:24;98903.91;;;-0.55;53.64
83664;BME280;73634;47.068;15.426;2024-01-10T08:12:49;98905.50;;;-0.54;53.67
83664;BME280;73634;47.068;15.426;2024-01-10T08:15:14;98903.72;;;0.07;51.81
83664;BME280;73634;47.068;15.426;2024-01-10T08:17:40;98899.34;;;0.15;51.22
83664;BME280;73634;47.068;15.426;2024-01-10T08:20:06;98901.00;;;0.96;49.59
83664;BME280;73634;47.068;15.426;2024-01-10T08:22:33;98888.19;;;3.07;44.17
83664;BME280;73634;47.068;15.426;2024-01-10T08:24:58;98883.59;;;5.56;38.53
83664;BME280;73634;47.068;15.426;2024-01-10T08:27:25;98881.38;;;6.10;35.63
83664;BME280;73634;47.068;15.426;2024-01-10T08:31:58;98889.47;;;3.77;40.81
83664;BME280;73634;47.068;15.426;2024-01-10T08:34:24;98892.88;;;3.90;40.73
83664;BME280;73634;47.068;15.426;2024-01-10T08:36:49;98894.75;;;3.16;42.63
83664;BME280;73634;47.068;15.426;2024-01-10T08:39:18;98899.16;;;3.42;42.13
83664;BME280;73634;47.068;15.426;2024-01-10T08:41:44;98895.44;;;3.90;40.59
83664;BME280;73634;47.068;15.426;2024-01-10T08:44:10;98898.19;;;4.28;40.56
83664;BME280;73634;47.068;15.426;2024-01-10T08:46:36;98890.50;;;5.87;36.53
83664;BME280;73634;47.068;15.426;2024-01-10T08:49:01;98891.91;;;5.90;36.08
83664;BME280;73634;47.068;15.426;2024-01-10T08:51:27;98893.69;;;8.00;32.22
83664;BME280;73634;47.068;15.426;2024-01-10T08:56:08;98895.03;;;9.42;29.55
83664;BME280;73634;47.068;15.426;2024-01-10T08:58:34;98883.66;;;10.48;27.72
83664;BME280;73634;47.068;15.426;2024-01-10T09:00:59;98891.63;;;7.56;31.90
83664;BME280;73634;47.068;15.426;2024-01-10T09:03:24;98892.22;;;9.60;28.66
83664;BME280;73634;47.068;15.426;2024-01-10T09:05:50;98889.09;;;10.25;27.49
83664;BME280;73634;47.068;15.426;2024-01-10T09:08:15;98890.03;;;11.01;26.38
83664;BME280;73634;47.068;15.426;2024-01-10T09:10:41;98880.03;;;12.06;24.31
83664;BME280;73634;47.068;15.426;2024-01-10T09:13:06;98884.22;;;13.16;23.08
83664;BME280;73634;47.068;15.426;2024-01-10T09:15:32;98889.50;;;13.62;22.09
83664;BME280;73634;47.068;15.426;2024-01-10T09:20:29;98887.75;;;11.31;23.97
83664;BME280;73634;47.068;15.426;2024-01-10T09:22:55;98881.56;;;11.38;24.86
83664;BME280;73634;47.068;15.426;2024-01-10T09:25:20;98886.06;;;10.16;25.99
83664;BME280;73634;47.068;15.426;2024-01-10T09:27:45;98879.50;;;10.91;25.21
83664;BME280;73634;47.068;15.426;2024-01-10T09:30:12;98880.59;;;10.95;25.36
83664;BME280;73634;47.068;15.426;2024-01-10T09:32:38;98888.53;;;11.05;25.22
83664;BME280;73634;47.068;15.426;2024-01-10T09:35:03;98888.31;;;10.24;26.45
83664;BME280;73634;47.068;15.426;2024-01-10T09:37:29;98884.72;;;12.03;23.78
83664;BME280;73634;47.068;15.426;2024-01-10T09:39:55;98878.22;;;13.36;21.70
83664;BME280;73634;47.068;15.426;2024-01-10T09:44:58;98871.41;;;14.11;20.57
83664;BME280;73634;47.068;15.426;2024-01-10T09:47:24;98867.31;;;15.63;19.49
83664;BME280;73634;47.068;15.426;2024-01-10T09:49:50;98866.53;;;16.44;18.41
83664;BME280;73634;47.068;15.426;2024-01-10T09:52:24;98873.28;;;13.55;21.47
83664;BME280;73634;47.068;15.426;2024-01-10T09:54:55;98873.25;;;13.24;21.21
83664;BME280;73634;47.068;15.426;2024-01-10T09:57:24;98868.00;;;14.21;20.65
83664;BME280;73634;47.068;15.426;2024-01-10T09:59:51;98859.09;;;14.96;19.54
83664;BME280;73634;47.068;15.426;2024-01-10T10:02:18;98861.56;;;12.64;21.81
83664;BME280;73634;47.068;15.426;2024-01-10T10:07:49;98857.53;;;18.14;16.46
83664;BME280;73634;47.068;15.426;2024-01-10T10:10:15;98852.06;;;17.46;16.65
83664;BME280;73634;47.068;15.426;2024-01-10T10:12:48;98852.19;;;15.50;18.54
83664;BME280;73634;47.068;15.426;2024-01-10T10:15:16;98848.38;;;14.88;19.78
83664;BME280;73634;47.068;15.426;2024-01-10T10:17:45;98844.34;;;15.11;19.21
83664;BME280;73634;47.068;15.426;2024-01-10T10:23:05;98840.84;;;17.21;17.04
83664;BME280;73634;47.068;15.426;2024-01-10T10:25:33;98834.97;;;18.08;16.21
83664;BME280;73634;47.068;15.426;2024-01-10T10:30:36;98830.84;;;17.23;16.90
83664;BME280;73634;47.068;15.426;2024-01-10T10:33:02;98830.28;;;16.22;17.45
83664;BME280;73634;47.068;15.426;2024-01-10T10:35:28;98832.34;;;16.49;17.55
83664;BME280;73634;47.068;15.426;2024-01-10T10:37:54;98830.34;;;15.25;18.29
83664;BME280;73634;47.068;15.426;2024-01-10T10:40:20;98828.38;;;16.94;17.20
83664;BME280;73634;47.068;15.426;2024-01-10T10:42:48;98825.19;;;17.49;16.16
83664;BME280;73634;47.068;15.426;2024-01-10T10:45:17;98818.06;;;16.37;17.59
83664;BME280;73634;47.068;15.426;2024-01-10T10:47:45;98821.78;;;15.83;18.45
83664;BME280;73634;47.068;15.426;2024-01-10T10:50:21;98817.31;;;15.49;18.47
83664;BME280;73634;47.068;15.426;2024-01-10T10:52:47;98821.00;;;16.78;17.63
83664;BME280;73634;47.068;15.426;2024-01-10T10:55:15;98808.47;;;16.46;17.33
83664;BME280;73634;47.068;15.426;2024-01-10T10:59:18;98809.00;;;15.37;18.89
83664;BME280;73634;47.068;15.426;2024-01-10T11:01:45;98807.78;;;16.59;17.54
83664;BME280;73634;47.068;15.426;2024-01-10T11:04:12;98804.03;;;15.98;18.10
83664;BME280;73634;47.068;15.426;2024-01-10T11:06:40;98800.06;;;13.70;20.24
83664;BME280;73634;47.068;15.426;2024-01-10T11:09:08;98797.38;;;14.06;19.75
83664;BME280;73634;47.068;15.426;2024-01-10T11:17:25;98795.16;;;11.51;22.81
83664;BME280;73634;47.068;15.426;2024-01-10T11:20:23;98792.28;;;12.42;21.96
83664;BME280;73634;47.068;15.426;2024-01-10T11:25:12;98793.00;;;7.57;28.66
83664;BME280;73634;47.068;15.426;2024-01-10T11:27:39;98791.97;;;9.81;26.51
83664;BME280;73634;47.068;15.426;2024-01-10T11:30:05;98792.91;;;9.08;26.86
83664;BME280;73634;47.068;15.426;2024-01-10T11:32:32;98792.34;;;8.49;28.30
83664;BME280;73634;47.068;15.426;2024-01-10T11:34:59;98786.53;;;9.82;25.94
83664;BME280;73634;47.068;15.426;2024-01-10T11:37:38;98775.78;;;9.57;26.30
83664;BME280;73634;47.068;15.426;2024-01-10T11:40:08;98774.28;;;10.38;25.64
83664;BME280;73634;47.068;15.426;2024-01-10T11:42:45;98767.16;;;11.36;23.94
83664;BME280;73634;47.068;15.426;2024-01-10T11:50:38;98759.00;;;10.95;24.16
83664;BME280;73634;47.068;15.426;2024-01-10T11:53:03;98760.59;;;11.70;23.64
83664;BME280;73634;47.068;15.426;2024-01-10T11:55:49;98758.34;;;9.91;26.12
83664;BME280;73634;47.068;15.426;2024-01-10T11:58:16;98751.94;;;11.23;23.91
83664;BME280;73634;47.068;15.426;2024-01-10T12:00:42;98754.78;;;12.83;22.50
83664;BME280;73634;47.068;15.426;2024-01-10T12:03:07;98748.41;;;12.28;23.22
83664;BME280;73634;47.068;15.426;2024-01-10T12:05:34;98754.38;;;7.56;29.19
83664;BME280;73634;47.068;15.426;2024-01-10T12:08:00;98749.91;;;8.66;28.47
83664;BME280;73634;47.068;15.426;2024-01-10T12:10:26;98748.78;;;9.41;27.13
83664;BME280;73634;47.068;15.426;2024-01-10T12:15:29;98740.16;;;10.34;26.24
83664;BME280;73634;47.068;15.426;2024-01-10T12:17:55;98731.38;;;9.97;25.77
83664;BME280;73634;47.068;15.426;2024-01-10T12:20:21;98735.38;;;8.54;28.88
83664;BME280;73634;47.068;15.426;2024-01-10T12:22:46;98725.31;;;10.13;26.60
83664;BME280;73634;47.068;15.426;2024-01-10T12:25:12;98725.72;;;10.22;25.86
83664;BME280;73634;47.068;15.426;2024-01-10T12:27:37;98717.72;;;11.88;24.28
83664;BME280;73634;47.068;15.426;2024-01-10T12:30:04;98714.00;;;11.37;24.28
83664;BME280;73634;47.068;15.426;2024-01-10T12:32:31;98706.19;;;10.46;25.78
83664;BME280;73634;47.068;15.426;2024-01-10T12:35:03;98706.28;;;12.05;23.76
83664;BME280;73634;47.068;15.426;2024-01-10T12:37:29;98706.31;;;11.20;24.83
83664;BME280;73634;47.068;15.426;2024-01-10T12:40:55;98709.13;;;10.77;25.37
83664;BME280;73634;47.068;15.426;2024-01-10T12:43:20;98697.13;;;10.49;25.89
83664;BME280;73634;47.068;15.426;2024-01-10T12:45:46;98694.81;;;11.95;23.71
83664;BME280;73634;47.068;15.426;2024-01-10T12:48:14;98687.50;;;11.92;23.15
83664;BME280;73634;47.068;15.426;2024-01-10T12:50:42;98688.66;;;12.27;23.25
83664;BME280;73634;47.068;15.426;2024-01-10T12:53:08;98690.09;;;11.92;23.19
83664;BME280;73634;47.068;15.426;2024-01-10T12:55:33;98676.72;;;13.22;21.78
83664;BME280;73634;47.068;15.426;2024-01-10T12:57:58;98686.31;;;12.41;22.47
83664;BME280;73634;47.068;15.426;2024-01-10T13:00:26;98674.78;;;10.85;24.32
83664;BME280;73634;47.068;15.426;2024-01-10T13:05:29;98669.16;;;12.70;21.86
83664;BME280;73634;47.068;15.426;2024-01-10T13:07:54;98672.69;;;11.56;23.84
83664;BME280;73634;47.068;15.426;2024-01-10T13:10:20;98671.13;;;11.55;24.09
83664;BME280;73634;47.068;15.426;2024-01-10T13:12:45;98668.72;;;11.95;23.43
83664;BME280;73634;47.068;15.426;2024-01-10T13:15:12;98663.63;;;13.48;21.37
83664;BME280;73634;47.068;15.426;2024-01-10T13:17:37;98669.19;;;10.98;24.00
83664;BME280;73634;47.068;15.426;2024-01-10T13:20:03;98674.75;;;10.04;25.97
83664;BME280;73634;47.068;15.426;2024-01-10T13:22:29;98666.13;;;11.06;25.23
83664;BME280;73634;47.068;15.426;2024-01-10T13:24:55;98674.06;;;12.46;23.54
83664;BME280;73634;47.068;15.426;2024-01-10T13:29:25;98672.88;;;9.17;27.24
83664;BME280;73634;47.068;15.426;2024-01-10T13:31:50;98666.59;;;10.17;25.89
83664;BME280;73634;47.068;15.426;2024-01-10T13:34:15;98672.84;;;8.84;27.53
83664;BME280;73634;47.068;15.426;2024-01-10T13:36:41;98670.94;;;7.07;30.49
83664;BME280;73634;47.068;15.426;2024-01-10T13:39:06;98672.91;;;5.12;34.79
83664;BME280;73634;47.068;15.426;2024-01-10T13:41:32;98674.50;;;5.93;34.03
83664;BME280;73634;47.068;15.426;2024-01-10T13:43:58;98670.81;;;7.25;30.91
83664;BME280;73634;47.068;15.426;2024-01-10T13:46:23;98679.13;;;5.66;33.98
83664;BME280;73634;47.068;15.426;2024-01-10T13:48:48;98680.34;;;6.78;32.76
83664;BME280;73634;47.068;15.426;2024-01-10T13:51:14;98687.03;;;5.71;34.21
83664;BME280;73634;47.068;15.426;2024-01-10T13:56:06;98689.16;;;5.99;33.86
83664;BME280;73634;47.068;15.426;2024-01-10T13:58:31;98690.13;;;6.16;33.71
83664;BME280;73634;47.068;15.426;2024-01-10T14:00:57;98681.63;;;6.27;33.84
83664;BME280;73634;47.068;15.426;2024-01-10T14:03:22;98680.22;;;8.30;30.39
83664;BME280;73634;47.068;15.426;2024-01-10T14:05:48;98683.56;;;6.32;31.83
83664;BME280;73634;47.068;15.426;2024-01-10T14:08:14;98682.34;;;5.61;34.50
83664;BME280;73634;47.068;15.426;2024-01-10T14:10:40;98680.94;;;6.02;33.60
83664;BME280;73634;47.068;15.426;2024-01-10T14:13:07;98683.09;;;5.25;34.25
83664;BME280;73634;47.068;15.426;2024-01-10T14:15:32;98680.63;;;7.47;31.79
83664;BME280;73634;47.068;15.426;2024-01-10T14:20:32;98689.75;;;6.13;34.13
83664;BME280;73634;47.068;15.426;2024-01-10T14:22:58;98681.63;;;6.57;34.10